Time;durP1;ratioP1;P1;durP2;ratioP2;P2;SDS_P1;SDS_P2;PMS_P1;PMS_P2;Temp;Humidity;BMP_temperature;BMP_pressure;BME280_temperature;BME280_humidity;BME280_pressure;Samples;Min_cycle;Max_cycle;Signal;HPM_P1;HPM_P2
2021/11/11 00:10:13;;;;;;;;;33.50;30.50;;;;;10.30;64.98;102598.88;146608;635;47010;-75
2021/11/11 00:12:51;;;;;;;;;7.25;6.25;;;;;10.19;64.75;102600.56;146605;631;46016;-76
2021/11/11 00:15:26;;;;;;;;;8.75;6.25;;;;;10.10;65.20;102604.97;146614;566;46020;-75
2021/11/11 00:18:00;;;;;;;;;10.50;7.50;;;;;10.00;65.82;102600.72;146614;607;45028;-79
2021/11/11 00:20:34;;;;;;;;;8.75;7.75;;;;;9.97;65.89;102595.28;146615;575;45020;-79
2021/11/11 00:23:08;;;;;;;;;10.50;9.50;;;;;9.91;65.97;102603.44;146615;594;46012;-79
2021/11/11 00:25:42;;;;;;;;;11.75;10.00;;;;;9.83;65.56;102600.97;146616;579;45031;-80
2021/11/11 00:28:16;;;;;;;;;15.25;13.50;;;;;9.74;66.29;102597.59;146610;619;46012;-80
2021/11/11 00:30:50;;;;;;;;;15.50;14.00;;;;;9.68;66.96;102597.97;146612;594;45020;-79
2021/11/11 00:33:25;;;;;;;;;17.75;16.50;;;;;9.65;67.38;102589.97;146613;564;46012;-78
2021/11/11 00:35:59;;;;;;;;;20.75;17.75;;;;;9.60;67.44;102584.41;146608;569;45914;-79
2021/11/11 00:38:33;;;;;;;;;12.25;12.00;;;;;9.40;67.21;102561.97;146607;612;46016;-73
2021/11/11 00:41:10;;;;;;;;;14.25;12.50;;;;;9.49;67.29;102582.56;146611;566;46020;-74
2021/11/11 00:43:45;;;;;;;;;18.50;15.00;;;;;9.43;67.68;102580.34;146607;623;46016;-74
2021/11/11 00:46:22;;;;;;;;;19.25;17.50;;;;;9.36;67.55;102583.22;146613;585;46012;-74
2021/11/11 00:48:57;;;;;;;;;15.25;12.75;;;;;9.33;68.13;102577.78;146608;565;45017;-75
2021/11/11 00:51:31;;;;;;;;;15.25;15.25;;;;;9.25;68.09;102569.37;146615;571;46020;-74
2021/11/11 00:54:05;;;;;;;;;15.75;11.75;;;;;9.25;68.03;102581.38;146613;564;45029;-75
2021/11/11 00:56:39;;;;;;;;;15.00;13.75;;;;;9.22;68.78;102579.44;146609;588;46020;-79
2021/11/11 00:59:13;;;;;;;;;12.00;11.25;;;;;9.20;68.51;102586.16;146610;576;46012;-80
2021/11/11 01:01:47;;;;;;;;;15.00;12.00;;;;;9.17;68.21;102578.13;146613;584;45020;-76
2021/11/11 01:04:21;;;;;;;;;13.25;12.50;;;;;9.17;68.47;102572.06;146606;570;46021;-74
2021/11/11 01:06:56;;;;;;;;;13.75;12.75;;;;;9.17;68.92;102566.88;146615;593;45020;-75
2021/11/11 01:09:30;;;;;;;;;12.00;10.00;;;;;9.17;68.37;102570.38;146608;644;45020;-75
2021/11/11 01:12:04;;;;;;;;;14.75;12.00;;;;;9.19;68.91;102566.25;146610;606;46021;-75
2021/11/11 01:14:39;;;;;;;;;8.00;7.75;;;;;9.24;68.84;102558.84;146609;555;46016;-75
2021/11/11 01:17:13;;;;;;;;;12.50;8.50;;;;;9.33;69.21;102562.22;146616;678;45021;-75
2021/11/11 01:19:47;;;;;;;;;10.00;8.75;;;;;9.43;68.51;102556.16;146613;704;45016;-75
2021/11/11 01:22:20;;;;;;;;;6.00;6.00;;;;;9.48;69.01;102553.19;146612;684;45020;-74
2021/11/11 01:24:55;;;;;;;;;13.50;10.50;;;;;9.57;68.74;102555.66;146615;573;46012;-75
2021/11/11 01:27:29;;;;;;;;;12.00;10.25;;;;;9.63;68.56;102550.09;146616;564;45020;-79
2021/11/11 01:30:03;;;;;;;;;26.25;23.50;;;;;9.64;68.18;102545.03;146607;599;45020;-78
2021/11/11 01:32:37;;;;;;;;;25.00;21.00;;;;;9.62;68.51;102550.84;146610;637;45021;-76
2021/11/11 01:35:14;;;;;;;;;15.00;14.75;;;;;9.59;68.48;102550.59;146606;571;46016;-76
2021/11/11 01:37:48;;;;;;;;;12.75;10.75;;;;;9.54;68.41;102545.03;146612;624;45020;-75
2021/11/11 01:40:23;;;;;;;;;10.00;8.00;;;;;9.48;68.73;102541.94;146607;685;46017;-76
2021/11/11 01:43:00;;;;;;;;;10.50;10.50;;;;;9.47;68.48;102540.12;146617;604;45020;-76
2021/11/11 01:45:38;;;;;;;;;10.25;9.25;;;;;9.45;68.76;102547.75;146607;603;46012;-76
2021/11/11 01:48:19;;;;;;;;;9.75;9.75;;;;;9.45;69.04;102537.38;146610;574;46020;-76
2021/11/11 01:50:53;;;;;;;;;9.50;9.00;;;;;9.48;68.64;102535.06;146615;620;46020;-76
2021/11/11 01:53:27;;;;;;;;;13.75;11.00;;;;;9.53;68.92;102537.12;146618;578;45020;-76
2021/11/11 01:56:01;;;;;;;;;12.25;10.00;;;;;9.52;69.54;102538.81;146609;612;46021;-73
2021/11/11 01:58:35;;;;;;;;;14.00;12.50;;;;;9.49;69.30;102529.09;146609;644;46010;-74
2021/11/11 02:01:09;;;;;;;;;10.50;9.75;;;;;9.49;69.21;102533.38;146608;598;46017;-74
2021/11/11 02:03:47;;;;;;;;;12.50;12.50;;;;;9.51;69.18;102530.94;146615;572;45914;-74
2021/11/11 02:06:24;;;;;;;;;13.50;12.75;;;;;9.53;68.98;102529.34;146608;569;45915;-75
2021/11/11 02:08:58;;;;;;;;;13.50;10.50;;;;;9.55;69.01;102518.34;146610;608;46021;-74
2021/11/11 02:11:32;;;;;;;;;12.50;12.50;;;;;9.56;69.67;102517.56;146609;573;46016;-75
2021/11/11 02:14:06;;;;;;;;;12.25;11.00;;;;;9.53;68.87;102517.31;146614;569;46020;-75
2021/11/11 02:16:41;;;;;;;;;16.00;10.75;;;;;9.51;69.08;102523.16;146610;569;47020;-75
2021/11/11 02:19:15;;;;;;;;;11.50;11.50;;;;;9.54;69.64;102513.97;146615;579;45020;-75
2021/11/11 02:21:55;;;;;;;;;12.50;12.25;;;;;9.59;69.59;102519.50;146616;563;46012;-78
2021/11/11 02:24:29;;;;;;;;;12.50;11.00;;;;;9.60;68.84;102511.87;146610;636;46021;-80
2021/11/11 02:27:03;;;;;;;;;11.00;11.00;;;;;9.61;69.27;102498.16;146612;574;46012;-75
2021/11/11 02:29:37;;;;;;;;;9.00;8.50;;;;;9.66;69.73;102493.38;146610;573;45020;-75
2021/11/11 02:32:12;;;;;;;;;12.25;11.50;;;;;9.74;69.08;102494.87;146612;625;46017;-76
2021/11/11 02:34:46;;;;;;;;;12.50;11.00;;;;;9.76;68.91;102500.22;146614;624;45020;-75
2021/11/11 02:37:20;;;;;;;;;12.25;11.00;;;;;9.74;69.07;102494.87;146609;569;46012;-73
2021/11/11 02:39:54;;;;;;;;;12.75;10.00;;;;;9.70;69.25;102504.09;146613;581;45021;-73
2021/11/11 02:42:29;;;;;;;;;9.00;8.50;;;;;9.64;69.43;102485.44;146611;648;46916;-75
2021/11/11 02:45:05;;;;;;;;;7.50;7.50;;;;;9.64;69.34;102488.03;146614;587;46914;-73
2021/11/11 02:47:40;;;;;;;;;19.75;16.75;;;;;9.60;69.33;102495.44;146614;596;46013;-73
2021/11/11 02:50:15;;;;;;;;;7.50;6.25;;;;;9.59;68.35;102478.97;146612;590;46010;-74
2021/11/11 02:52:51;;;;;;;;;12.00;12.00;;;;;9.62;69.65;102474.03;146612;717;45017;-74
2021/11/11 02:55:26;;;;;;;;;12.50;10.50;;;;;9.69;68.71;102480.66;146611;619;45021;-72
2021/11/11 02:58:02;;;;;;;;;10.50;7.25;;;;;9.71;68.67;102480.00;146608;675;45020;-74
2021/11/11 03:00:44;;;;;;;;;10.75;8.25;;;;;9.81;68.50;102488.53;146618;633;45051;-74
2021/11/11 03:03:18;;;;;;;;;10.50;7.75;;;;;9.86;68.39;102484.63;146613;589;45036;-74
2021/11/11 03:05:52;;;;;;;;;9.75;8.75;;;;;9.91;68.40;102485.94;146610;594;45040;-77
2021/11/11 03:08:27;;;;;;;;;29.00;25.00;;;;;9.95;68.20;102480.22;146612;632;45020;-78
2021/11/11 03:11:05;;;;;;;;;8.75;6.00;;;;;9.98;67.91;102480.47;146610;586;45020;-75
2021/11/11 03:13:41;;;;;;;;;9.00;7.75;;;;;9.96;67.92;102479.41;146612;672;45916;-74
2021/11/11 03:16:15;;;;;;;;;7.75;6.75;;;;;9.94;68.09;102473.22;146617;656;45049;-75
2021/11/11 03:18:49;;;;;;;;;5.75;5.25;;;;;9.89;67.50;102488.38;146618;622;46016;-75
2021/11/11 03:21:23;;;;;;;;;5.00;5.00;;;;;9.84;68.04;102481.91;146617;599;46010;-74
2021/11/11 03:23:57;;;;;;;;;4.75;4.75;;;;;9.84;67.95;102483.59;146613;582;45020;-75
2021/11/11 03:26:31;;;;;;;;;9.00;7.00;;;;;9.79;68.08;102470.28;146613;571;45020;-75
2021/11/11 03:29:05;;;;;;;;;5.00;5.00;;;;;9.74;68.02;102473.25;146613;572;45915;-76
2021/11/11 03:31:39;;;;;;;;;5.25;4.25;;;;;9.68;68.07;102461.59;146615;612;45021;-76
2021/11/11 03:34:13;;;;;;;;;4.75;4.75;;;;;9.61;67.91;102459.28;146612;618;46016;-77
2021/11/11 03:36:47;;;;;;;;;4.25;4.25;;;;;9.56;67.78;102464.88;146614;667;46020;-75
2021/11/11 03:39:22;;;;;;;;;5.00;3.75;;;;;9.54;67.82;102464.75;146613;582;45017;-77
2021/11/11 03:41:58;;;;;;;;;3.75;3.75;;;;;9.54;68.42;102464.75;146615;637;45020;-76
2021/11/11 03:44:32;;;;;;;;;4.25;4.25;;;;;9.57;68.16;102462.41;146616;608;45032;-77
2021/11/11 03:47:07;;;;;;;;;4.75;3.50;;;;;9.58;68.01;102455.56;146615;578;45021;-74
2021/11/11 03:49:42;;;;;;;;;5.25;4.00;;;;;9.57;67.63;102461.53;146615;626;46020;-76
2021/11/11 03:52:16;;;;;;;;;3.75;3.75;;;;;9.56;66.78;102460.59;146615;581;46020;-75
2021/11/11 03:54:50;;;;;;;;;5.00;3.00;;;;;9.55;66.88;102455.28;146613;646;45021;-74
2021/11/11 03:57:24;;;;;;;;;3.00;3.00;;;;;9.55;66.98;102456.19;146610;563;45020;-74
2021/11/11 03:59:58;;;;;;;;;4.50;4.00;;;;;9.58;67.55;102442.59;146613;712;45041;-74
2021/11/11 04:02:32;;;;;;;;;10.25;9.00;;;;;9.61;67.91;102448.94;146615;668;45020;-79
2021/11/11 04:05:07;;;;;;;;;43.00;34.75;;;;;9.68;67.64;102445.16;146611;585;45915;-78
2021/11/11 04:07:40;;;;;;;;;36.50;30.75;;;;;9.68;67.48;102443.47;146614;592;46010;-77
2021/11/11 04:10:15;;;;;;;;;9.00;7.00;;;;;9.68;66.53;102442.56;146607;577;46916;-78
2021/11/11 04:12:49;;;;;;;;;7.00;6.00;;;;;9.70;66.56;102446.22;146614;575;45020;-81
2021/11/11 04:15:23;;;;;;;;;4.75;4.25;;;;;9.73;65.68;102438.69;146612;615;45916;-82
2021/11/11 04:17:57;;;;;;;;;7.00;5.00;;;;;9.77;66.60;102448.50;146618;607;45020;-74
2021/11/11 04:20:31;;;;;;;;;6.00;4.00;;;;;9.82;66.92;102452.41;146613;648;45016;-74
2021/11/11 04:23:05;;;;;;;;;3.75;3.75;;;;;9.86;66.96;102451.84;146610;580;45020;-73
2021/11/11 04:26:06;;;;;;;;;4.75;4.50;;;;;9.87;66.20;102445.88;146612;604;47021;-74
2021/11/11 04:28:47;;;;;;;;;5.00;5.00;;;;;9.90;66.86;102432.28;146616;638;46014;-75
2021/11/11 04:31:26;;;;;;;;;3.75;3.75;;;;;9.90;66.31;102440.03;146610;581;46017;-74
2021/11/11 04:34:04;;;;;;;;;5.00;3.75;;;;;9.87;66.44;102434.63;146614;575;46020;-75
2021/11/11 04:39:59;;;;;;;;;5.00;4.00;;;;;9.79;67.36;102433.09;146618;608;45021;-73
2021/11/11 04:43:01;;;;;;;;;6.00;4.00;;;;;9.76;66.92;102425.97;146616;577;46012;-76
2021/11/11 04:45:56;;;;;;;;;5.50;4.75;;;;;9.77;66.27;102422.59;146616;596;47010;-73
2021/11/11 05:00:27;;;;;;;;;6.50;4.50;;;;;9.69;66.98;102415.91;146616;592;46018;-76
2021/11/11 05:05:55;;;;;;;;;6.00;5.00;;;;;9.66;66.93;102416.56;146615;563;45014;-77
2021/11/11 05:08:29;;;;;;;;;5.75;5.75;;;;;9.63;67.40;102415.41;146613;623;45021;-77
2021/11/11 05:11:04;;;;;;;;;5.00;5.00;;;;;9.60;67.46;102410.88;146611;592;46016;-81
2021/11/11 05:13:38;;;;;;;;;7.75;6.00;;;;;9.60;67.62;102413.47;146617;616;46020;-81
2021/11/11 05:16:12;;;;;;;;;7.25;5.75;;;;;9.64;68.08;102418.09;146616;588;46916;-81
2021/11/11 05:18:46;;;;;;;;;6.00;5.00;;;;;9.66;67.13;102416.56;146614;663;46020;-81
2021/11/11 05:21:20;;;;;;;;;5.50;5.00;;;;;9.68;67.39;102416.66;146618;598;45016;-81
2021/11/11 05:23:54;;;;;;;;;5.50;5.00;;;;;9.73;67.79;102422.25;146612;574;46010;-83
2021/11/11 05:26:29;;;;;;;;;4.25;4.25;;;;;9.75;67.42;102412.87;146617;583;45016;-83
2021/11/11 05:29:03;;;;;;;;;8.00;8.00;;;;;9.78;67.32;102419.25;146616;579;46020;-84
2021/11/11 05:31:37;;;;;;;;;6.25;6.25;;;;;9.81;67.28;102421.16;146612;650;48021;-84
2021/11/11 05:34:10;;;;;;;;;6.50;5.75;;;;;9.82;67.34;102417.81;146616;569;46914;-85
2021/11/11 05:36:44;;;;;;;;;23.00;20.75;;;;;9.85;67.51;102418.06;146611;583;47916;-83
2021/11/11 05:39:18;;;;;;;;;13.75;10.00;;;;;9.91;67.65;102418.56;146609;598;46020;-74
2021/11/11 05:41:52;;;;;;;;;10.75;7.50;;;;;9.98;67.88;102422.53;146610;563;45027;-75
2021/11/11 05:44:26;;;;;;;;;6.50;6.00;;;;;10.06;67.36;102414.62;146608;598;46021;-73
2021/11/11 05:47:00;;;;;;;;;14.75;8.25;;;;;10.15;67.51;102419.59;146615;596;46012;-73
2021/11/11 05:49:34;;;;;;;;;18.50;17.00;;;;;10.23;67.37;102418.53;146616;577;45020;-73
2021/11/11 05:52:10;;;;;;;;;13.75;13.50;;;;;10.30;66.64;102425.16;146609;581;46013;-74
2021/11/11 05:54:44;;;;;;;;;17.25;14.25;;;;;10.42;66.84;102426.13;146612;564;45020;-75
2021/11/11 05:57:18;;;;;;;;;13.50;13.50;;;;;10.56;67.35;102424.59;146610;577;46012;-75
2021/11/11 05:59:52;;;;;;;;;16.00;12.50;;;;;10.71;66.52;102423.19;146611;718;45021;-75
2021/11/11 06:02:27;;;;;;;;;10.00;7.75;;;;;10.87;64.82;102422.69;146609;619;45041;-75
2021/11/11 06:05:01;;;;;;;;;8.00;7.25;;;;;10.99;65.38;102426.22;146614;613;45020;-75
2021/11/11 06:07:35;;;;;;;;;8.50;7.25;;;;;11.17;65.67;102431.94;146613;594;46021;-75
2021/11/11 06:10:13;;;;;;;;;9.75;7.25;;;;;11.39;64.97;102430.97;146610;637;45020;-78
2021/11/11 06:12:47;;;;;;;;;16.25;13.50;;;;;11.56;63.83;102414.94;146613;601;45020;-80
2021/11/11 06:15:21;;;;;;;;;8.50;7.25;;;;;11.70;63.95;102418.56;146610;578;46014;-78
2021/11/11 06:17:57;;;;;;;;;17.00;13.75;;;;;11.83;65.26;102416.06;146614;577;45016;-77
2021/11/11 06:20:32;;;;;;;;;13.25;11.25;;;;;11.97;65.09;102419.72;146610;607;46020;-78
2021/11/11 06:23:07;;;;;;;;;13.50;11.50;;;;;12.11;65.66;102428.50;146610;588;45023;-80
2021/11/11 06:25:40;;;;;;;;;13.50;12.00;;;;;12.23;64.99;102432.88;146609;564;46020;-78
2021/11/11 06:28:15;;;;;;;;;18.50;16.75;;;;;12.36;64.01;102431.16;146608;603;46016;-78
2021/11/11 06:30:49;;;;;;;;;84.00;77.00;;;;;12.43;63.54;102431.72;146611;612;46020;-78
2021/11/11 06:33:23;;;;;;;;;57.50;43.75;;;;;12.50;64.17;102432.16;146609;570;45041;-78
2021/11/11 06:35:57;;;;;;;;;19.75;19.75;;;;;12.56;63.58;102428.28;146611;630;45021;-79
2021/11/11 06:38:31;;;;;;;;;13.25;11.00;;;;;12.62;64.27;102420.91;146608;583;45021;-79
2021/11/11 06:41:05;;;;;;;;;26.75;24.50;;;;;12.73;65.26;102433.75;146610;613;45020;-81
2021/11/11 06:43:39;;;;;;;;;46.25;36.25;;;;;12.76;65.05;102426.16;146605;592;46017;-80
2021/11/11 06:46:14;;;;;;;;;45.75;37.75;;;;;12.92;63.92;102419.50;146608;571;46020;-81
2021/11/11 06:48:48;;;;;;;;;35.25;29.50;;;;;13.03;62.99;102422.84;146610;622;46012;-80
2021/11/11 06:51:22;;;;;;;;;22.50;21.00;;;;;13.08;62.51;102415.34;146607;599;47010;-78
2021/11/11 06:53:56;;;;;;;;;15.50;14.25;;;;;13.15;63.34;102412.38;146607;581;46016;-80
2021/11/11 06:56:30;;;;;;;;;17.50;16.25;;;;;13.29;61.76;102415.94;146611;570;45020;-81
2021/11/11 06:59:04;;;;;;;;;13.00;13.00;;;;;13.43;61.81;102404.72;146610;572;46012;-78
2021/11/11 07:01:41;;;;;;;;;14.50;14.00;;;;;13.69;61.69;102411.66;146610;582;46020;-80
2021/11/11 07:04:15;;;;;;;;;17.50;16.00;;;;;13.92;59.81;102402.69;146610;660;46012;-71
2021/11/11 07:06:49;;;;;;;;;15.00;13.25;;;;;14.10;58.16;102402.97;146613;579;45020;-74
2021/11/11 07:09:23;;;;;;;;;19.00;15.50;;;;;14.23;57.79;102400.34;146609;628;46012;-73
2021/11/11 07:11:57;;;;;;;;;16.50;14.00;;;;;14.31;56.97;102395.63;146612;579;45021;-71
2021/11/11 07:14:31;;;;;;;;;14.00;12.75;;;;;14.33;57.63;102388.81;146610;621;46012;-72
2021/11/11 07:17:05;;;;;;;;;10.25;10.25;;;;;14.47;58.26;102400.97;146613;618;45020;-70
2021/11/11 07:19:39;;;;;;;;;12.00;12.00;;;;;14.58;57.27;102393.88;146610;605;46013;-75
2021/11/11 07:22:13;;;;;;;;;8.75;8.00;;;;;14.69;57.08;102387.56;146610;670;45020;-74
2021/11/11 07:24:47;;;;;;;;;12.25;10.50;;;;;14.85;56.23;102396.34;146612;571;45020;-75
2021/11/11 07:27:21;;;;;;;;;11.00;9.25;;;;;14.99;56.60;102390.25;146610;657;45021;-74
2021/11/11 07:29:55;;;;;;;;;5.00;5.00;;;;;15.14;55.43;102385.94;146611;671;46016;-79
2021/11/11 07:32:29;;;;;;;;;8.25;6.75;;;;;15.31;55.67;102383.41;146620;625;45025;-79
2021/11/11 07:35:03;;;;;;;;;8.25;6.75;;;;;15.50;59.56;102380.13;146617;610;46013;-77
2021/11/11 07:37:37;;;;;;;;;7.50;7.25;;;;;15.71;59.21;102384.00;146620;564;45014;-79
2021/11/11 07:40:20;;;;;;;;;5.25;5.00;;;;;15.94;59.52;102380.06;146613;603;46012;-77
2021/11/11 07:42:55;;;;;;;;;8.00;7.00;;;;;16.16;58.01;102375.19;146613;565;46011;-79
2021/11/11 07:45:29;;;;;;;;;6.00;6.00;;;;;16.44;56.91;102366.22;146611;659;46016;-79
2021/11/11 07:48:03;;;;;;;;;6.50;6.50;;;;;16.68;54.47;102369.25;146616;641;45020;-78
2021/11/11 07:50:41;;;;;;;;;10.00;10.00;;;;;16.91;53.32;102370.47;146611;566;46017;-78
2021/11/11 07:53:15;;;;;;;;;10.00;7.25;;;;;17.06;53.28;102362.50;146609;598;46022;-78
2021/11/11 07:55:49;;;;;;;;;11.25;9.75;;;;;17.20;53.50;102361.50;146613;573;46013;-78
2021/11/11 07:58:27;;;;;;;;;9.50;6.75;;;;;17.31;52.67;102357.66;146615;635;45021;-77
2021/11/11 08:01:02;;;;;;;;;8.33;6.67;;;;;17.38;52.71;102358.84;146617;589;46012;-78
2021/11/11 08:03:36;;;;;;;;;7.00;7.00;;;;;17.45;54.05;102360.97;146616;642;46021;-78
2021/11/11 08:06:10;;;;;;;;;6.33;6.33;;;;;17.53;53.29;102354.38;146613;602;46016;-78
2021/11/11 08:08:44;;;;;;;;;7.67;7.67;;;;;17.58;52.16;102361.59;146620;582;46010;-78
2021/11/11 08:11:18;;;;;;;;;8.75;7.75;;;;;17.59;51.21;102356.41;146612;564;46016;-77
2021/11/11 08:13:52;;;;;;;;;10.00;9.00;;;;;17.59;50.31;102343.28;146619;698;45014;-78
2021/11/11 08:16:30;;;;;;;;;7.75;7.75;;;;;17.58;48.36;102341.50;146609;578;46016;-78
2021/11/11 08:19:04;;;;;;;;;8.67;7.67;;;;;17.58;52.62;102335.34;146611;570;45020;-77
2021/11/11 08:21:38;;;;;;;;;8.25;7.00;;;;;17.64;52.42;102343.53;146612;693;45914;-78
2021/11/11 08:24:12;;;;;;;;;10.00;10.00;;;;;17.71;51.37;102340.34;146618;686;45020;-79
2021/11/11 08:26:46;;;;;;;;;8.33;7.33;;;;;17.81;51.97;102333.84;146607;620;45912;-78
2021/11/11 08:29:20;;;;;;;;;6.00;6.00;;;;;17.93;51.07;102337.94;146617;625;46010;-78
2021/11/11 08:31:54;;;;;;;;;10.00;9.00;;;;;18.03;50.87;102336.66;146611;595;46016;-78
2021/11/11 08:34:28;;;;;;;;;11.33;10.00;;;;;18.14;51.56;102338.06;146616;609;45021;-78
2021/11/11 08:37:02;;;;;;;;;6.67;5.33;;;;;18.21;50.33;102337.50;146610;579;46016;-78
2021/11/11 08:39:36;;;;;;;;;8.00;6.33;;;;;18.24;51.48;102326.25;146616;566;45020;-77
2021/11/11 08:42:12;;;;;;;;;8.00;7.00;;;;;18.28;47.99;102319.41;146612;627;45017;-77
2021/11/11 08:44:48;;;;;;;;;6.33;6.00;;;;;18.23;50.54;102322.72;146607;586;47012;-78
2021/11/11 08:47:24;;;;;;;;;5.00;5.00;;;;;18.19;48.96;102323.41;146614;592;46012;-78
2021/11/11 08:49:58;;;;;;;;;3.00;3.00;;;;;18.09;49.40;102315.94;146619;582;46010;-79
2021/11/11 08:52:33;;;;;;;;;9.00;5.00;;;;;18.02;50.04;102312.97;146612;584;46016;-78
2021/11/11 08:55:07;;;;;;;;;5.33;5.00;;;;;17.93;49.30;102313.44;146614;630;46020;-78
2021/11/11 08:57:42;;;;;;;;;3.67;3.67;;;;;17.86;50.84;102309.62;146613;604;46017;-78
2021/11/11 09:00:24;;;;;;;;;5.00;4.67;;;;;17.83;49.82;102309.50;146619;569;45030;-78
2021/11/11 09:02:59;;;;;;;;;4.00;3.33;;;;;17.78;50.88;102301.37;146612;636;46016;-78
2021/11/11 09:05:34;;;;;;;;;6.33;4.67;;;;;17.78;50.80;102297.87;146614;583;45020;-78
2021/11/11 09:08:11;;;;;;;;;3.33;3.33;;;;;17.76;47.82;102304.75;146611;620;46016;-78
2021/11/11 09:10:49;;;;;;;;;3.67;3.33;;;;;17.69;49.76;102305.28;146611;656;45029;-79
2021/11/11 09:13:23;;;;;;;;;3.00;3.00;;;;;17.57;48.72;102296.81;146613;594;45021;-78
2021/11/11 09:16:07;;;;;;;;;3.33;3.33;;;;;17.47;46.83;102292.84;146616;569;46020;-77
2021/11/11 09:18:42;;;;;;;;;4.00;4.00;;;;;17.44;49.09;102293.59;146617;594;46012;-78
2021/11/11 09:21:16;;;;;;;;;6.33;5.00;;;;;17.39;47.92;102294.22;146614;589;45020;-78
2021/11/11 09:23:50;;;;;;;;;6.25;6.25;;;;;17.34;51.06;102283.50;146611;645;46016;-79
2021/11/11 09:26:25;;;;;;;;;6.33;4.67;;;;;17.42;51.69;102281.28;146617;570;45021;-78
2021/11/11 09:29:00;;;;;;;;;2.67;2.67;;;;;17.54;50.27;102277.50;146616;629;46012;-77
2021/11/11 09:31:34;;;;;;;;;4.67;4.67;;;;;17.66;49.43;102273.66;146616;633;46020;-77
2021/11/11 09:34:10;;;;;;;;;3.25;3.25;;;;;17.77;48.91;102270.72;146615;579;46016;-78
2021/11/11 09:36:47;;;;;;;;;3.67;3.67;;;;;17.80;47.87;102262.12;146610;588;46020;-79
2021/11/11 09:39:21;;;;;;;;;3.00;3.00;;;;;17.84;49.10;102258.78;146614;564;45017;-77
2021/11/11 09:41:58;;;;;;;;;4.00;2.00;;;;;17.87;48.80;102247.53;146619;570;45014;-77
2021/11/11 09:44:33;;;;;;;;;2.67;2.67;;;;;17.87;46.84;102244.91;146611;603;46016;-79
2021/11/11 09:47:07;;;;;;;;;2.67;2.67;;;;;17.77;41.13;102238.34;146617;596;46020;-76
2021/11/11 09:49:41;;;;;;;;;3.33;2.33;;;;;17.73;46.78;102234.66;146616;586;46012;-78
2021/11/11 09:52:17;;;;;;;;;1.67;1.67;;;;;17.70;46.27;102229.28;146616;565;46010;-77
2021/11/11 10:00:35;;;;;;;;;4.33;4.00;;;;;17.99;47.45;102214.88;146615;637;46016;-77
2021/11/11 10:03:12;;;;;;;;;1.33;0.67;;;;;18.06;44.57;102204.66;146610;636;47008;-77
2021/11/11 10:05:46;;;;;;;;;6.33;4.67;;;;;18.05;45.65;102206.37;146613;582;45016;-80
2021/11/11 10:08:45;;;;;;;;;4.00;3.00;;;;;17.98;49.50;102199.97;146615;574;46020;-77
2021/11/11 10:11:41;;;;;;;;;4.00;3.33;;;;;17.96;48.75;102188.50;146615;629;46012;-75
2021/11/11 10:14:17;;;;;;;;;4.00;3.00;;;;;17.99;45.83;102186.00;146617;574;46014;-82
2021/11/11 10:16:55;;;;;;;;;2.67;2.33;;;;;18.01;46.04;102175.59;146615;594;46013;-81
2021/11/11 10:19:36;;;;;;;;;5.33;3.33;;;;;18.06;45.67;102173.16;146619;603;46008;-80
2021/11/11 10:22:22;;;;;;;;;4.33;3.67;;;;;18.10;47.97;102165.50;146615;565;46012;-82
2021/11/11 10:25:02;;;;;;;;;8.00;3.67;;;;;18.19;45.19;102165.91;146615;601;46020;-82
2021/11/11 10:27:43;;;;;;;;;6.67;4.33;;;;;18.22;47.87;102160.78;146614;580;46936;-82
2021/11/11 10:30:26;;;;;;;;;14.50;9.25;;;;;18.27;47.29;102160.97;146608;565;45020;-82
2021/11/11 10:33:13;;;;;;;;;9.25;7.50;;;;;18.26;44.05;102159.19;146609;683;46916;-81
2021/11/11 10:35:54;;;;;;;;;5.67;3.00;;;;;18.06;43.98;102125.91;146617;565;45031;-81
2021/11/11 10:38:28;;;;;;;;;4.67;4.67;;;;;18.06;45.35;102136.41;146616;596;46012;-82
2021/11/11 10:41:02;;;;;;;;;7.67;5.67;;;;;18.08;42.73;102138.28;146621;666;46010;-80
2021/11/11 10:43:36;;;;;;;;;3.67;3.67;;;;;18.03;44.57;102137.16;146618;569;45014;-81
2021/11/11 10:46:11;;;;;;;;;4.00;4.00;;;;;18.00;45.60;102130.06;146620;611;45020;-81
2021/11/11 10:48:45;;;;;;;;;10.67;8.00;;;;;17.96;44.32;102128.13;146616;563;46012;-81
2021/11/11 10:51:19;;;;;;;;;3.00;3.00;;;;;17.91;44.15;102129.69;146615;599;45020;-80
2021/11/11 10:54:08;;;;;;;;;6.00;4.00;;;;;17.85;48.42;102124.16;146615;587;46014;-83
2021/11/11 10:56:59;;;;;;;;;5.33;5.33;;;;;17.82;47.85;102120.47;146613;607;45020;-83
2021/11/11 10:59:33;;;;;;;;;5.00;3.00;;;;;17.76;45.72;102116.75;146612;583;46016;-82
2021/11/11 11:02:12;;;;;;;;;4.67;4.00;;;;;17.73;45.37;102118.34;146615;599;46014;-80
2021/11/11 11:04:46;;;;;;;;;6.33;5.00;;;;;17.67;46.59;102116.34;146616;578;45016;-81
2021/11/11 11:07:22;;;;;;;;;3.00;3.00;;;;;17.65;46.69;102106.59;146620;616;45014;-82
2021/11/11 11:10:10;;;;;;;;;5.75;5.75;;;;;17.72;49.37;102111.28;146610;581;45916;-74
2021/11/11 11:12:44;;;;;;;;;5.00;5.00;;;;;17.70;44.83;102105.09;146617;570;46020;-81
2021/11/11 11:15:36;;;;;;;;;4.00;4.00;;;;;17.66;47.01;102104.06;146615;571;45020;-81
2021/11/11 11:18:12;;;;;;;;;5.67;4.67;;;;;17.60;45.17;102100.25;146617;589;45020;-83
2021/11/11 11:20:46;;;;;;;;;4.67;4.33;;;;;17.55;46.31;102094.81;146613;570;46016;-81
2021/11/11 11:23:25;;;;;;;;;3.00;2.00;;;;;17.51;46.23;102099.03;146613;570;45020;-82
2021/11/11 11:26:21;;;;;;;;;3.00;3.00;;;;;17.46;47.69;102095.28;146614;660;45016;-82
2021/11/11 11:29:20;;;;;;;;;5.33;3.67;;;;;16.37;45.68;101917.34;146615;569;46014;-82
2021/11/11 11:32:13;;;;;;;;;2.00;1.67;;;;;17.41;48.32;102088.94;146619;586;46012;-82
2021/11/11 11:34:59;;;;;;;;;3.33;3.33;;;;;17.40;48.36;102087.16;146613;569;46020;-82
2021/11/11 11:37:36;;;;;;;;;5.00;4.25;;;;;17.39;45.50;102082.75;146616;587;46012;-82
2021/11/11 11:40:17;;;;;;;;;4.00;3.00;;;;;17.36;46.49;102081.72;146614;593;45020;-83
2021/11/11 11:42:54;;;;;;;;;2.33;2.33;;;;;17.25;45.37;102073.34;146617;628;45016;-80
2021/11/11 11:45:28;;;;;;;;;5.67;3.00;;;;;17.20;43.37;102074.88;146620;583;45015;-82
2021/11/11 11:48:17;;;;;;;;;3.00;2.00;;;;;17.15;45.63;102073.75;146626;583;47012;-80
2021/11/11 11:50:59;;;;;;;;;4.67;4.67;;;;;17.07;43.37;102063.81;146614;570;45020;-82
2021/11/11 11:53:39;;;;;;;;;7.00;4.33;;;;;17.00;45.92;102069.59;146614;572;45916;-81
2021/11/11 11:56:22;;;;;;;;;3.00;3.00;;;;;16.88;43.77;102066.41;146619;585;45020;-82
2021/11/11 11:59:02;;;;;;;;;5.00;4.67;;;;;16.81;46.50;102061.69;146616;590;45020;-82
2021/11/11 12:08:09;;;;;;;;;4.67;3.00;;;;;16.71;49.03;102062.97;146617;576;45021;-83
2021/11/11 12:10:54;;;;;;;;;4.67;4.00;;;;;16.66;46.70;102048.75;146615;617;45016;-82
2021/11/11 12:38:35;;;;;;;;;6.00;5.25;;;;;16.15;48.00;102025.34;146613;569;46918;-78
2021/11/11 12:40:39;;;;;;;;;5.67;4.67;;;;;16.22;48.16;102021.31;146614;586;45048;-79
2021/11/11 12:43:20;;;;;;;;;2.00;2.00;;;;;16.25;48.64;102017.97;146615;563;46914;-74
2021/11/11 12:45:55;;;;;;;;;3.00;3.00;;;;;16.20;46.74;102016.81;146616;610;45021;-79
2021/11/11 12:48:31;;;;;;;;;4.67;4.33;;;;;16.16;47.61;102014.06;146611;674;46010;-80
2021/11/11 12:51:10;;;;;;;;;2.67;2.67;;;;;16.14;47.09;102017.44;146616;585;46013;-79
2021/11/11 12:53:55;;;;;;;;;7.67;5.00;;;;;16.11;47.70;102009.44;146616;576;46021;-79
2021/11/11 12:56:34;;;;;;;;;5.33;5.33;;;;;16.08;48.96;102006.69;146615;607;46915;-78
2021/11/11 12:59:13;;;;;;;;;6.00;5.00;;;;;16.07;49.17;102012.72;146618;564;46011;-79
2021/11/11 13:02:01;;;;;;;;;5.00;4.00;;;;;16.04;50.46;102009.94;146616;591;45021;-78
2021/11/11 13:04:52;;;;;;;;;4.67;3.33;;;;;16.02;50.83;102009.87;146616;569;45020;-78
2021/11/11 13:07:36;;;;;;;;;4.25;4.00;;;;;15.88;47.64;101995.22;146613;582;46017;-79